sensor_id;sensor_type;location;lat;lon;timestamp;P1;durP1;ratioP1;P2;durP2;ratioP2
53674;SDS011;39574;50.534;8.500;2024-03-29T00:02:00;7.9;;;2.9;;
53674;SDS011;39574;50.534;8.500;2024-03-29T00:06:59;7.6;;;3.1;;
53674;SDS011;39574;50.534;8.500;2024-03-29T00:12:02;7.0;;;2.8;;
53674;SDS011;39574;50.534;8.500;2024-03-29T00:16:58;6.6;;;2.6;;
53674;SDS011;39574;50.534;8.500;2024-03-29T00:21:56;6.2;;;2.2;;
53674;SDS011;39574;50.534;8.500;2024-03-29T00:26:55;6.1;;;1.9;;
53674;SDS011;39574;50.534;8.500;2024-03-29T00:31:55;5.6;;;1.8;;
53674;SDS011;39574;50.534;8.500;2024-03-29T00:36:53;4.9;;;1.6;;
53674;SDS011;39574;50.534;8.500;2024-03-29T00:41:52;5.3;;;1.8;;
53674;SDS011;39574;50.534;8.500;2024-03-29T00:46:52;5.8;;;2.1;;
53674;SDS011;39574;50.534;8.500;2024-03-29T00:51:51;6.5;;;2.3;;
53674;SDS011;39574;50.534;8.500;2024-03-29T00:56:51;7.1;;;2.4;;
53674;SDS011;39574;50.534;8.500;2024-03-29T01:11:47;7.5;;;2.7;;
53674;SDS011;39574;50.534;8.500;2024-03-29T01:16:46;8.6;;;3.2;;
53674;SDS011;39574;50.534;8.500;2024-03-29T01:21:45;7.3;;;2.7;;
53674;SDS011;39574;50.534;8.500;2024-03-29T01:31:43;6.6;;;2.4;;
53674;SDS011;39574;50.534;8.500;2024-03-29T01:51:39;6.5;;;2.5;;
53674;SDS011;39574;50.534;8.500;2024-03-29T02:06:39;8.5;;;3.1;;
53674;SDS011;39574;50.534;8.500;2024-03-29T02:21:35;8.0;;;2.8;;
53674;SDS011;39574;50.534;8.500;2024-03-29T02:26:33;7.1;;;2.5;;
53674;SDS011;39574;50.534;8.500;2024-03-29T02:31:31;6.8;;;2.2;;
53674;SDS011;39574;50.534;8.500;2024-03-29T02:41:30;6.7;;;2.1;;
53674;SDS011;39574;50.534;8.500;2024-03-29T03:21:22;6.5;;;2.4;;
53674;SDS011;39574;50.534;8.500;2024-03-29T03:26:21;6.9;;;2.5;;
53674;SDS011;39574;50.534;8.500;2024-03-29T03:31:21;6.7;;;2.4;;
53674;SDS011;39574;50.534;8.500;2024-03-29T03:36:19;6.4;;;2.2;;
53674;SDS011;39574;50.534;8.500;2024-03-29T03:41:19;6.1;;;2.0;;
53674;SDS011;39574;50.534;8.500;2024-03-29T03:46:17;6.4;;;2.1;;
53674;SDS011;39574;50.534;8.500;2024-03-29T03:51:16;6.7;;;2.0;;
53674;SDS011;39574;50.534;8.500;2024-03-29T04:06:14;6.8;;;2.1;;
53674;SDS011;39574;50.534;8.500;2024-03-29T04:11:12;6.6;;;2.2;;
53674;SDS011;39574;50.534;8.500;2024-03-29T04:21:11;6.7;;;2.3;;
53674;SDS011;39574;50.534;8.500;2024-03-29T04:31:13;6.2;;;2.0;;
53674;SDS011;39574;50.534;8.500;2024-03-29T04:41:08;5.9;;;1.8;;
53674;SDS011;39574;50.534;8.500;2024-03-29T04:51:05;5.4;;;1.7;;
53674;SDS011;39574;50.534;8.500;2024-03-29T05:01:04;5.1;;;1.6;;
53674;SDS011;39574;50.534;8.500;2024-03-29T05:11:06;4.8;;;1.7;;
53674;SDS011;39574;50.534;8.500;2024-03-29T05:21:02;4.7;;;1.6;;
53674;SDS011;39574;50.534;8.500;2024-03-29T05:31:10;5.3;;;1.8;;
53674;SDS011;39574;50.534;8.500;2024-03-29T05:35:58;5.8;;;2.3;;
53674;SDS011;39574;50.534;8.500;2024-03-29T05:40:57;6.3;;;2.3;;
53674;SDS011;39574;50.534;8.500;2024-03-29T05:45:56;5.6;;;2.0;;
53674;SDS011;39574;50.534;8.500;2024-03-29T05:50:55;5.3;;;1.8;;
53674;SDS011;39574;50.534;8.500;2024-03-29T05:55:54;4.7;;;1.6;;
53674;SDS011;39574;50.534;8.500;2024-03-29T06:00:53;5.1;;;1.7;;
53674;SDS011;39574;50.534;8.500;2024-03-29T06:10:52;5.0;;;1.7;;
53674;SDS011;39574;50.534;8.500;2024-03-29T06:30:48;4.7;;;1.8;;
53674;SDS011;39574;50.534;8.500;2024-03-29T06:35:52;4.7;;;1.7;;
53674;SDS011;39574;50.534;8.500;2024-03-29T06:40:51;5.1;;;1.7;;
53674;SDS011;39574;50.534;8.500;2024-03-29T06:55:43;5.0;;;1.7;;
53674;SDS011;39574;50.534;8.500;2024-03-29T07:00:43;4.9;;;1.7;;
53674;SDS011;39574;50.534;8.500;2024-03-29T07:05:41;4.8;;;1.7;;
53674;SDS011;39574;50.534;8.500;2024-03-29T07:10:40;4.9;;;1.8;;
53674;SDS011;39574;50.534;8.500;2024-03-29T07:15:40;4.9;;;1.9;;
53674;SDS011;39574;50.534;8.500;2024-03-29T07:20:38;4.5;;;1.8;;
53674;SDS011;39574;50.534;8.500;2024-03-29T07:25:38;5.2;;;1.8;;
53674;SDS011;39574;50.534;8.500;2024-03-29T07:30:37;5.1;;;1.8;;
53674;SDS011;39574;50.534;8.500;2024-03-29T07:35:36;5.6;;;2.1;;
53674;SDS011;39574;50.534;8.500;2024-03-29T07:40:35;5.9;;;2.2;;
53674;SDS011;39574;50.534;8.500;2024-03-29T07:45:34;6.3;;;2.4;;
53674;SDS011;39574;50.534;8.500;2024-03-29T07:50:33;6.6;;;2.6;;
53674;SDS011;39574;50.534;8.500;2024-03-29T07:55:33;6.5;;;2.7;;
53674;SDS011;39574;50.534;8.500;2024-03-29T08:00:32;9.5;;;4.1;;
53674;SDS011;39574;50.534;8.500;2024-03-29T08:05:35;10.3;;;4.5;;
53674;SDS011;39574;50.534;8.500;2024-03-29T08:10:29;8.9;;;3.8;;
53674;SDS011;39574;50.534;8.500;2024-03-29T08:15:28;8.2;;;3.4;;
53674;SDS011;39574;50.534;8.500;2024-03-29T08:20:27;7.8;;;2.7;;
53674;SDS011;39574;50.534;8.500;2024-03-29T08:30:26;9.3;;;3.5;;
53674;SDS011;39574;50.534;8.500;2024-03-29T08:35:25;14.6;;;5.7;;
53674;SDS011;39574;50.534;8.500;2024-03-29T08:40:25;17.5;;;7.0;;
53674;SDS011;39574;50.534;8.500;2024-03-29T08:45:24;14.4;;;6.1;;
53674;SDS011;39574;50.534;8.500;2024-03-29T08:55:22;10.6;;;4.8;;
53674;SDS011;39574;50.534;8.500;2024-03-29T09:00:21;8.3;;;3.6;;
53674;SDS011;39574;50.534;8.500;2024-03-29T09:05:20;6.7;;;3.1;;
53674;SDS011;39574;50.534;8.500;2024-03-29T09:10:19;6.8;;;3.2;;
53674;SDS011;39574;50.534;8.500;2024-03-29T09:15:19;6.7;;;3.1;;
53674;SDS011;39574;50.534;8.500;2024-03-29T09:20:17;6.8;;;3.0;;
53674;SDS011;39574;50.534;8.500;2024-03-29T09:25:16;8.9;;;4.9;;
53674;SDS011;39574;50.534;8.500;2024-03-29T09:30:16;8.5;;;4.5;;
53674;SDS011;39574;50.534;8.500;2024-03-29T09:35:15;7.5;;;3.6;;
53674;SDS011;39574;50.534;8.500;2024-03-29T09:40:15;6.8;;;2.8;;
53674;SDS011;39574;50.534;8.500;2024-03-29T09:45:13;5.7;;;2.3;;
53674;SDS011;39574;50.534;8.500;2024-03-29T09:50:12;11.7;;;5.5;;
53674;SDS011;39574;50.534;8.500;2024-03-29T09:55:11;19.0;;;9.5;;
53674;SDS011;39574;50.534;8.500;2024-03-29T10:00:11;15.4;;;8.0;;
53674;SDS011;39574;50.534;8.500;2024-03-29T10:10:09;11.1;;;5.7;;
53674;SDS011;39574;50.534;8.500;2024-03-29T10:15:08;7.5;;;3.4;;
53674;SDS011;39574;50.534;8.500;2024-03-29T10:20:08;5.2;;;2.0;;
53674;SDS011;39574;50.534;8.500;2024-03-29T10:25:07;4.9;;;1.9;;
53674;SDS011;39574;50.534;8.500;2024-03-29T10:30:10;4.7;;;1.8;;
53674;SDS011;39574;50.534;8.500;2024-03-29T10:35:09;4.5;;;1.9;;
53674;SDS011;39574;50.534;8.500;2024-03-29T10:40:06;4.7;;;1.8;;
53674;SDS011;39574;50.534;8.500;2024-03-29T10:45:04;4.5;;;1.7;;
53674;SDS011;39574;50.534;8.500;2024-03-29T10:50:03;4.2;;;1.6;;
53674;SDS011;39574;50.534;8.500;2024-03-29T10:55:02;4.3;;;1.5;;
53674;SDS011;39574;50.534;8.500;2024-03-29T11:00:04;4.3;;;1.7;;
53674;SDS011;39574;50.534;8.500;2024-03-29T11:05:01;5.3;;;2.0;;
53674;SDS011;39574;50.534;8.500;2024-03-29T11:10:00;6.3;;;2.4;;
53674;SDS011;39574;50.534;8.500;2024-03-29T11:15:00;6.1;;;2.2;;
53674;SDS011;39574;50.534;8.500;2024-03-29T11:19:58;6.1;;;2.0;;
53674;SDS011;39574;50.534;8.500;2024-03-29T11:24:56;5.8;;;1.9;;
53674;SDS011;39574;50.534;8.500;2024-03-29T11:29:56;6.5;;;2.0;;
53674;SDS011;39574;50.534;8.500;2024-03-29T11:39:55;6.1;;;2.0;;
53674;SDS011;39574;50.534;8.500;2024-03-29T11:44:53;5.4;;;2.1;;
53674;SDS011;39574;50.534;8.500;2024-03-29T11:49:55;5.3;;;2.2;;
53674;SDS011;39574;50.534;8.500;2024-03-29T11:54:53;5.3;;;2.5;;
53674;SDS011;39574;50.534;8.500;2024-03-29T11:59:55;5.8;;;2.8;;
53674;SDS011;39574;50.534;8.500;2024-03-29T12:04:50;5.8;;;2.7;;
53674;SDS011;39574;50.534;8.500;2024-03-29T12:09:50;6.2;;;2.7;;
53674;SDS011;39574;50.534;8.500;2024-03-29T12:19:48;5.6;;;2.5;;
53674;SDS011;39574;50.534;8.500;2024-03-29T12:24:47;5.5;;;2.4;;
53674;SDS011;39574;50.534;8.500;2024-03-29T12:29:46;5.8;;;2.4;;
53674;SDS011;39574;50.534;8.500;2024-03-29T12:34:46;5.6;;;2.3;;
53674;SDS011;39574;50.534;8.500;2024-03-29T12:39:44;6.1;;;2.5;;
53674;SDS011;39574;50.534;8.500;2024-03-29T12:44:44;6.7;;;2.8;;
53674;SDS011;39574;50.534;8.500;2024-03-29T12:49:43;7.7;;;3.4;;
53674;SDS011;39574;50.534;8.500;2024-03-29T12:54:42;7.3;;;3.4;;
53674;SDS011;39574;50.534;8.500;2024-03-29T12:59:42;7.0;;;3.2;;
53674;SDS011;39574;50.534;8.500;2024-03-29T13:04:41;6.6;;;3.0;;
53674;SDS011;39574;50.534;8.500;2024-03-29T13:09:41;7.0;;;3.3;;
53674;SDS011;39574;50.534;8.500;2024-03-29T13:14:39;7.2;;;3.6;;
53674;SDS011;39574;50.534;8.500;2024-03-29T13:19:38;7.1;;;3.7;;
53674;SDS011;39574;50.534;8.500;2024-03-29T13:24:38;6.9;;;3.6;;
53674;SDS011;39574;50.534;8.500;2024-03-29T13:29:37;7.2;;;3.6;;
53674;SDS011;39574;50.534;8.500;2024-03-29T13:34:36;7.5;;;3.9;;
53674;SDS011;39574;50.534;8.500;2024-03-29T13:39:35;7.8;;;3.8;;
53674;SDS011;39574;50.534;8.500;2024-03-29T13:44:34;7.2;;;3.9;;
53674;SDS011;39574;50.534;8.500;2024-03-29T13:49:34;6.7;;;3.7;;
53674;SDS011;39574;50.534;8.500;2024-03-29T13:54:33;6.4;;;3.1;;
53674;SDS011;39574;50.534;8.500;2024-03-29T13:59:32;6.0;;;3.1;;
53674;SDS011;39574;50.534;8.500;2024-03-29T14:04:31;5.5;;;2.6;;
53674;SDS011;39574;50.534;8.500;2024-03-29T14:09:30;4.9;;;2.2;;
53674;SDS011;39574;50.534;8.500;2024-03-29T14:14:30;4.7;;;2.2;;
53674;SDS011;39574;50.534;8.500;2024-03-29T14:19:30;4.8;;;2.1;;
53674;SDS011;39574;50.534;8.500;2024-03-29T14:24:28;5.0;;;2.2;;
53674;SDS011;39574;50.534;8.500;2024-03-29T14:34:27;4.7;;;2.2;;
53674;SDS011;39574;50.534;8.500;2024-03-29T14:39:26;4.8;;;2.3;;
53674;SDS011;39574;50.534;8.500;2024-03-29T14:44:25;6.0;;;2.9;;
53674;SDS011;39574;50.534;8.500;2024-03-29T14:49:24;5.5;;;2.7;;
53674;SDS011;39574;50.534;8.500;2024-03-29T14:54:23;5.1;;;2.5;;
53674;SDS011;39574;50.534;8.500;2024-03-29T14:59:23;4.9;;;2.4;;
53674;SDS011;39574;50.534;8.500;2024-03-29T15:04:22;4.9;;;2.4;;
53674;SDS011;39574;50.534;8.500;2024-03-29T15:09:21;4.9;;;2.4;;
53674;SDS011;39574;50.534;8.500;2024-03-29T15:14:21;5.5;;;2.9;;
53674;SDS011;39574;50.534;8.500;2024-03-29T15:19:20;5.1;;;2.8;;
53674;SDS011;39574;50.534;8.500;2024-03-29T15:24:19;5.3;;;2.7;;
53674;SDS011;39574;50.534;8.500;2024-03-29T15:34:17;5.5;;;2.9;;
53674;SDS011;39574;50.534;8.500;2024-03-29T15:39:16;4.9;;;2.6;;
53674;SDS011;39574;50.534;8.500;2024-03-29T15:44:16;5.6;;;2.6;;
53674;SDS011;39574;50.534;8.500;2024-03-29T15:49:15;6.4;;;3.1;;
53674;SDS011;39574;50.534;8.500;2024-03-29T15:54:14;5.9;;;3.0;;
53674;SDS011;39574;50.534;8.500;2024-03-29T15:59:13;6.7;;;3.4;;
53674;SDS011;39574;50.534;8.500;2024-03-29T16:04:13;8.0;;;4.7;;
53674;SDS011;39574;50.534;8.500;2024-03-29T16:09:12;9.1;;;5.3;;
53674;SDS011;39574;50.534;8.500;2024-03-29T16:14:11;10.5;;;6.4;;
53674;SDS011;39574;50.534;8.500;2024-03-29T16:19:10;10.7;;;6.9;;
53674;SDS011;39574;50.534;8.500;2024-03-29T16:24:10;9.4;;;6.2;;
53674;SDS011;39574;50.534;8.500;2024-03-29T16:34:08;9.9;;;6.5;;
53674;SDS011;39574;50.534;8.500;2024-03-29T16:39:07;10.8;;;7.1;;
53674;SDS011;39574;50.534;8.500;2024-03-29T16:44:06;12.1;;;8.0;;
53674;SDS011;39574;50.534;8.500;2024-03-29T16:49:05;12.7;;;8.1;;
53674;SDS011;39574;50.534;8.500;2024-03-29T16:59:04;14.9;;;10.0;;
53674;SDS011;39574;50.534;8.500;2024-03-29T17:04:03;15.1;;;10.3;;
53674;SDS011;39574;50.534;8.500;2024-03-29T17:09:02;15.0;;;10.3;;
53674;SDS011;39574;50.534;8.500;2024-03-29T17:14:01;15.6;;;10.6;;
53674;SDS011;39574;50.534;8.500;2024-03-29T17:19:00;16.0;;;10.5;;
53674;SDS011;39574;50.534;8.500;2024-03-29T17:23:59;16.0;;;10.2;;
53674;SDS011;39574;50.534;8.500;2024-03-29T17:28:59;14.3;;;9.2;;
53674;SDS011;39574;50.534;8.500;2024-03-29T17:33:58;14.3;;;8.0;;
53674;SDS011;39574;50.534;8.500;2024-03-29T17:38:57;12.6;;;7.4;;
53674;SDS011;39574;50.534;8.500;2024-03-29T17:43:58;11.8;;;7.1;;
53674;SDS011;39574;50.534;8.500;2024-03-29T17:48:56;11.4;;;6.9;;
53674;SDS011;39574;50.534;8.500;2024-03-29T17:53:55;11.2;;;7.3;;
53674;SDS011;39574;50.534;8.500;2024-03-29T17:58:54;12.2;;;7.7;;
53674;SDS011;39574;50.534;8.500;2024-03-29T18:03:53;12.8;;;8.7;;
53674;SDS011;39574;50.534;8.500;2024-03-29T18:08:52;12.9;;;8.5;;
53674;SDS011;39574;50.534;8.500;2024-03-29T18:13:51;15.4;;;9.3;;
53674;SDS011;39574;50.534;8.500;2024-03-29T18:18:50;13.9;;;8.9;;
53674;SDS011;39574;50.534;8.500;2024-03-29T18:23:50;17.4;;;11.0;;
53674;SDS011;39574;50.534;8.500;2024-03-29T18:28:49;16.3;;;10.8;;
53674;SDS011;39574;50.534;8.500;2024-03-29T18:38:47;15.3;;;10.3;;
53674;SDS011;39574;50.534;8.500;2024-03-29T18:43:46;15.6;;;10.0;;
53674;SDS011;39574;50.534;8.500;2024-03-29T18:48:45;15.6;;;10.1;;
53674;SDS011;39574;50.534;8.500;2024-03-29T18:53:45;18.6;;;12.1;;
53674;SDS011;39574;50.534;8.500;2024-03-29T18:58:44;20.7;;;14.0;;
53674;SDS011;39574;50.534;8.500;2024-03-29T19:03:43;21.1;;;14.2;;
53674;SDS011;39574;50.534;8.500;2024-03-29T19:08:45;17.7;;;12.1;;
53674;SDS011;39574;50.534;8.500;2024-03-29T19:13:45;16.1;;;10.4;;
53674;SDS011;39574;50.534;8.500;2024-03-29T19:18:41;35.4;;;21.5;;
53674;SDS011;39574;50.534;8.500;2024-03-29T19:23:43;40.4;;;22.4;;
53674;SDS011;39574;50.534;8.500;2024-03-29T19:28:39;38.8;;;21.0;;
53674;SDS011;39574;50.534;8.500;2024-03-29T19:33:38;37.9;;;19.7;;
53674;SDS011;39574;50.534;8.500;2024-03-29T19:38:37;103.3;;;20.2;;
53674;SDS011;39574;50.534;8.500;2024-03-29T19:43:37;118.7;;;19.3;;
53674;SDS011;39574;50.534;8.500;2024-03-29T19:48:36;90.3;;;17.7;;
53674;SDS011;39574;50.534;8.500;2024-03-29T19:53:34;57.7;;;13.7;;
53674;SDS011;39574;50.534;8.500;2024-03-29T19:58:34;29.4;;;12.2;;
53674;SDS011;39574;50.534;8.500;2024-03-29T20:03:33;27.4;;;15.6;;
53674;SDS011;39574;50.534;8.500;2024-03-29T20:08:32;33.4;;;19.5;;
53674;SDS011;39574;50.534;8.500;2024-03-29T20:13:35;40.3;;;19.2;;
53674;SDS011;39574;50.534;8.500;2024-03-29T20:18:32;74.7;;;20.8;;
53674;SDS011;39574;50.534;8.500;2024-03-29T20:23:29;58.8;;;17.7;;
53674;SDS011;39574;50.534;8.500;2024-03-29T20:28:29;44.7;;;15.5;;
53674;SDS011;39574;50.534;8.500;2024-03-29T20:33:28;37.6;;;15.2;;
53674;SDS011;39574;50.534;8.500;2024-03-29T20:38:27;27.1;;;14.4;;
53674;SDS011;39574;50.534;8.500;2024-03-29T20:48:25;26.4;;;15.2;;
53674;SDS011;39574;50.534;8.500;2024-03-29T20:53:24;30.4;;;18.0;;
53674;SDS011;39574;50.534;8.500;2024-03-29T20:58:23;29.0;;;18.0;;
53674;SDS011;39574;50.534;8.500;2024-03-29T21:03:23;27.9;;;17.4;;
53674;SDS011;39574;50.534;8.500;2024-03-29T21:08:21;26.8;;;16.6;;
53674;SDS011;39574;50.534;8.500;2024-03-29T21:23:19;25.5;;;16.1;;
53674;SDS011;39574;50.534;8.500;2024-03-29T21:28:18;24.9;;;15.6;;
53674;SDS011;39574;50.534;8.500;2024-03-29T21:33:17;23.5;;;15.0;;
53674;SDS011;39574;50.534;8.500;2024-03-29T21:43:19;21.9;;;14.1;;
53674;SDS011;39574;50.534;8.500;2024-03-29T21:48:14;21.4;;;13.6;;
53674;SDS011;39574;50.534;8.500;2024-03-29T21:53:14;25.6;;;15.3;;
53674;SDS011;39574;50.534;8.500;2024-03-29T21:58:13;24.6;;;14.8;;
53674;SDS011;39574;50.534;8.500;2024-03-29T22:03:11;24.9;;;15.1;;
53674;SDS011;39574;50.534;8.500;2024-03-29T22:08:11;25.0;;;15.1;;
53674;SDS011;39574;50.534;8.500;2024-03-29T22:13:14;25.2;;;14.9;;
53674;SDS011;39574;50.534;8.500;2024-03-29T22:23:08;26.9;;;15.9;;
53674;SDS011;39574;50.534;8.500;2024-03-29T22:28:10;27.8;;;16.5;;
53674;SDS011;39574;50.534;8.500;2024-03-29T22:33:07;26.6;;;16.1;;
53674;SDS011;39574;50.534;8.500;2024-03-29T22:38:06;25.3;;;15.3;;
53674;SDS011;39574;50.534;8.500;2024-03-29T22:43:09;24.4;;;14.6;;
53674;SDS011;39574;50.534;8.500;2024-03-29T22:48:04;23.2;;;14.1;;
53674;SDS011;39574;50.534;8.500;2024-03-29T22:53:03;24.0;;;14.1;;
53674;SDS011;39574;50.534;8.500;2024-03-29T22:58:02;24.0;;;13.8;;
53674;SDS011;39574;50.534;8.500;2024-03-29T23:03:02;30.9;;;16.5;;
53674;SDS011;39574;50.534;8.500;2024-03-29T23:08:00;29.1;;;16.0;;
53674;SDS011;39574;50.534;8.500;2024-03-29T23:13:00;25.5;;;14.4;;
53674;SDS011;39574;50.534;8.500;2024-03-29T23:17:59;22.4;;;13.2;;
53674;SDS011;39574;50.534;8.500;2024-03-29T23:23:01;19.3;;;11.6;;
53674;SDS011;39574;50.534;8.500;2024-03-29T23:27:57;17.8;;;10.7;;
53674;SDS011;39574;50.534;8.500;2024-03-29T23:32:56;17.0;;;10.3;;
53674;SDS011;39574;50.534;8.500;2024-03-29T23:37:55;16.5;;;9.9;;
53674;SDS011;39574;50.534;8.500;2024-03-29T23:42:54;16.5;;;10.3;;
53674;SDS011;39574;50.534;8.500;2024-03-29T23:47:54;15.5;;;9.6;;
53674;SDS011;39574;50.534;8.500;2024-03-29T23:52:53;14.7;;;9.1;;
53674;SDS011;39574;50.534;8.500;2024-03-29T23:57:52;14.2;;;8.6;;
